sensor_id;sensor_type;location;lat;lon;timestamp;temperature;humidity
43858;DHT22;29507;51.284;5.758;2023-07-20T00:01:17;16.60;99.90
43858;DHT22;29507;51.284;5.758;2023-07-20T00:03:43;16.60;99.90
43858;DHT22;29507;51.284;5.758;2023-07-20T00:06:08;16.60;99.90
43858;DHT22;29507;51.284;5.758;2023-07-20T00:08:34;16.50;99.90
43858;DHT22;29507;51.284;5.758;2023-07-20T00:11:00;16.40;99.90
43858;DHT22;29507;51.284;5.758;2023-07-20T00:13:25;16.40;99.90
43858;DHT22;29507;51.284;5.758;2023-07-20T00:15:51;16.40;99.90
43858;DHT22;29507;51.284;5.758;2023-07-20T00:18:17;16.20;99.90
43858;DHT22;29507;51.284;5.758;2023-07-20T00:20:43;16.10;99.90
43858;DHT22;29507;51.284;5.758;2023-07-20T00:23:08;16.00;99.90
43858;DHT22;29507;51.284;5.758;2023-07-20T00:25:34;16.00;99.90
43858;DHT22;29507;51.284;5.758;2023-07-20T00:28:00;15.90;99.90
43858;DHT22;29507;51.284;5.758;2023-07-20T00:30:26;15.80;99.90
43858;DHT22;29507;51.284;5.758;2023-07-20T00:32:52;15.80;99.90
43858;DHT22;29507;51.284;5.758;2023-07-20T00:35:18;15.70;99.90
43858;DHT22;29507;51.284;5.758;2023-07-20T00:37:43;15.70;99.90
43858;DHT22;29507;51.284;5.758;2023-07-20T00:40:09;15.70;99.90
43858;DHT22;29507;51.284;5.758;2023-07-20T00:42:35;15.70;99.90
43858;DHT22;29507;51.284;5.758;2023-07-20T00:45:01;15.60;99.90
43858;DHT22;29507;51.284;5.758;2023-07-20T00:47:27;15.60;99.90
43858;DHT22;29507;51.284;5.758;2023-07-20T00:49:53;15.60;99.90
43858;DHT22;29507;51.284;5.758;2023-07-20T00:52:21;15.50;99.90
43858;DHT22;29507;51.284;5.758;2023-07-20T00:54:47;15.50;99.90
43858;DHT22;29507;51.284;5.758;2023-07-20T00:57:16;15.40;99.90
43858;DHT22;29507;51.284;5.758;2023-07-20T00:59:43;15.30;99.90
43858;DHT22;29507;51.284;5.758;2023-07-20T01:02:09;15.30;99.90
43858;DHT22;29507;51.284;5.758;2023-07-20T01:04:35;15.20;99.90
43858;DHT22;29507;51.284;5.758;2023-07-20T01:07:14;15.10;99.90
43858;DHT22;29507;51.284;5.758;2023-07-20T01:10:10;15.10;99.90
43858;DHT22;29507;51.284;5.758;2023-07-20T01:15:06;15.10;99.90
43858;DHT22;29507;51.284;5.758;2023-07-20T01:17:33;15.10;99.90
43858;DHT22;29507;51.284;5.758;2023-07-20T01:19:59;15.10;99.90
43858;DHT22;29507;51.284;5.758;2023-07-20T01:28:10;15.00;99.90
43858;DHT22;29507;51.284;5.758;2023-07-20T01:33:32;15.10;99.90
43858;DHT22;29507;51.284;5.758;2023-07-20T01:35:59;15.20;99.90
43858;DHT22;29507;51.284;5.758;2023-07-20T01:38:26;15.30;99.90
43858;DHT22;29507;51.284;5.758;2023-07-20T01:40:52;15.30;99.90
43858;DHT22;29507;51.284;5.758;2023-07-20T01:43:18;15.20;99.90
43858;DHT22;29507;51.284;5.758;2023-07-20T01:45:44;15.10;99.90
43858;DHT22;29507;51.284;5.758;2023-07-20T01:48:10;15.00;99.90
43858;DHT22;29507;51.284;5.758;2023-07-20T01:50:36;15.00;99.90
43858;DHT22;29507;51.284;5.758;2023-07-20T01:53:01;15.00;99.90
43858;DHT22;29507;51.284;5.758;2023-07-20T01:55:27;14.90;99.90
43858;DHT22;29507;51.284;5.758;2023-07-20T01:57:54;14.90;99.90
43858;DHT22;29507;51.284;5.758;2023-07-20T02:00:20;14.70;99.90
43858;DHT22;29507;51.284;5.758;2023-07-20T02:02:50;14.60;99.90
43858;DHT22;29507;51.284;5.758;2023-07-20T02:05:16;14.60;99.90
43858;DHT22;29507;51.284;5.758;2023-07-20T02:07:43;14.60;99.90
43858;DHT22;29507;51.284;5.758;2023-07-20T02:10:09;14.70;99.90
43858;DHT22;29507;51.284;5.758;2023-07-20T02:12:35;14.60;99.90
43858;DHT22;29507;51.284;5.758;2023-07-20T02:15:01;14.60;99.90
43858;DHT22;29507;51.284;5.758;2023-07-20T02:17:27;14.60;99.90
43858;DHT22;29507;51.284;5.758;2023-07-20T02:19:53;14.50;99.90
43858;DHT22;29507;51.284;5.758;2023-07-20T02:22:20;14.50;99.90
43858;DHT22;29507;51.284;5.758;2023-07-20T02:24:46;14.50;99.90
43858;DHT22;29507;51.284;5.758;2023-07-20T02:27:12;14.50;99.90
43858;DHT22;29507;51.284;5.758;2023-07-20T02:29:37;14.50;99.90
43858;DHT22;29507;51.284;5.758;2023-07-20T02:32:03;14.50;99.90
43858;DHT22;29507;51.284;5.758;2023-07-20T02:34:29;14.50;99.90
43858;DHT22;29507;51.284;5.758;2023-07-20T02:36:55;14.50;99.90
43858;DHT22;29507;51.284;5.758;2023-07-20T02:39:24;14.50;99.90
43858;DHT22;29507;51.284;5.758;2023-07-20T02:41:50;14.50;99.90
43858;DHT22;29507;51.284;5.758;2023-07-20T02:44:15;14.60;99.90
43858;DHT22;29507;51.284;5.758;2023-07-20T02:46:41;14.70;99.90
43858;DHT22;29507;51.284;5.758;2023-07-20T02:49:06;14.80;99.90
43858;DHT22;29507;51.284;5.758;2023-07-20T02:51:32;14.80;99.90
43858;DHT22;29507;51.284;5.758;2023-07-20T02:53:58;14.80;99.90
43858;DHT22;29507;51.284;5.758;2023-07-20T02:56:24;14.70;99.90
43858;DHT22;29507;51.284;5.758;2023-07-20T02:58:50;14.60;99.90
43858;DHT22;29507;51.284;5.758;2023-07-20T03:01:15;14.50;99.90
43858;DHT22;29507;51.284;5.758;2023-07-20T03:03:42;14.40;99.90
43858;DHT22;29507;51.284;5.758;2023-07-20T03:06:12;14.50;99.90
43858;DHT22;29507;51.284;5.758;2023-07-20T03:08:38;14.60;99.90
43858;DHT22;29507;51.284;5.758;2023-07-20T03:11:03;14.60;99.90
43858;DHT22;29507;51.284;5.758;2023-07-20T03:13:29;14.70;99.90
43858;DHT22;29507;51.284;5.758;2023-07-20T03:15:55;14.70;99.90
43858;DHT22;29507;51.284;5.758;2023-07-20T03:18:20;14.70;99.90
43858;DHT22;29507;51.284;5.758;2023-07-20T03:20:46;14.70;99.90
43858;DHT22;29507;51.284;5.758;2023-07-20T03:23:14;14.80;99.90
43858;DHT22;29507;51.284;5.758;2023-07-20T03:25:41;14.80;99.90
43858;DHT22;29507;51.284;5.758;2023-07-20T03:28:06;14.80;99.90
43858;DHT22;29507;51.284;5.758;2023-07-20T03:30:33;14.80;99.90
43858;DHT22;29507;51.284;5.758;2023-07-20T03:32:58;14.70;99.90
43858;DHT22;29507;51.284;5.758;2023-07-20T03:35:24;14.70;99.90
43858;DHT22;29507;51.284;5.758;2023-07-20T03:37:49;14.60;99.90
43858;DHT22;29507;51.284;5.758;2023-07-20T03:40:15;14.50;99.90
43858;DHT22;29507;51.284;5.758;2023-07-20T03:42:42;14.50;99.90
43858;DHT22;29507;51.284;5.758;2023-07-20T03:45:07;14.40;99.90
43858;DHT22;29507;51.284;5.758;2023-07-20T03:47:33;14.30;99.90
43858;DHT22;29507;51.284;5.758;2023-07-20T03:49:59;14.30;99.90
43858;DHT22;29507;51.284;5.758;2023-07-20T03:52:24;14.30;99.90
43858;DHT22;29507;51.284;5.758;2023-07-20T03:54:50;14.20;99.90
43858;DHT22;29507;51.284;5.758;2023-07-20T03:57:17;14.20;99.90
43858;DHT22;29507;51.284;5.758;2023-07-20T03:59:45;14.20;99.90
43858;DHT22;29507;51.284;5.758;2023-07-20T04:02:11;14.20;99.90
43858;DHT22;29507;51.284;5.758;2023-07-20T04:04:37;14.20;99.90
43858;DHT22;29507;51.284;5.758;2023-07-20T04:07:03;14.10;99.90
43858;DHT22;29507;51.284;5.758;2023-07-20T04:09:29;14.00;99.90
43858;DHT22;29507;51.284;5.758;2023-07-20T04:11:55;14.00;99.90
43858;DHT22;29507;51.284;5.758;2023-07-20T04:14:21;14.00;99.90
43858;DHT22;29507;51.284;5.758;2023-07-20T04:16:47;14.00;99.90
43858;DHT22;29507;51.284;5.758;2023-07-20T04:19:13;13.90;99.90
43858;DHT22;29507;51.284;5.758;2023-07-20T04:21:42;13.90;99.90
43858;DHT22;29507;51.284;5.758;2023-07-20T04:24:07;13.90;99.90
43858;DHT22;29507;51.284;5.758;2023-07-20T04:26:33;13.90;99.90
43858;DHT22;29507;51.284;5.758;2023-07-20T04:28:59;13.90;99.90
43858;DHT22;29507;51.284;5.758;2023-07-20T04:31:24;14.00;99.90
43858;DHT22;29507;51.284;5.758;2023-07-20T04:33:50;14.00;99.90
43858;DHT22;29507;51.284;5.758;2023-07-20T04:36:16;14.00;99.90
43858;DHT22;29507;51.284;5.758;2023-07-20T04:38:47;14.00;99.90
43858;DHT22;29507;51.284;5.758;2023-07-20T04:41:13;14.00;99.90
43858;DHT22;29507;51.284;5.758;2023-07-20T04:43:43;14.00;99.90
43858;DHT22;29507;51.284;5.758;2023-07-20T04:46:10;14.10;99.90
43858;DHT22;29507;51.284;5.758;2023-07-20T04:48:36;14.20;99.90
43858;DHT22;29507;51.284;5.758;2023-07-20T04:51:02;14.20;99.90
43858;DHT22;29507;51.284;5.758;2023-07-20T04:53:27;14.40;99.90
43858;DHT22;29507;51.284;5.758;2023-07-20T04:55:53;14.50;99.90
43858;DHT22;29507;51.284;5.758;2023-07-20T04:58:20;14.60;99.90
43858;DHT22;29507;51.284;5.758;2023-07-20T05:00:47;14.60;99.90
43858;DHT22;29507;51.284;5.758;2023-07-20T05:03:13;14.70;99.90
43858;DHT22;29507;51.284;5.758;2023-07-20T05:05:39;14.80;99.90
43858;DHT22;29507;51.284;5.758;2023-07-20T05:08:04;14.90;99.90
43858;DHT22;29507;51.284;5.758;2023-07-20T05:10:30;14.90;99.90
43858;DHT22;29507;51.284;5.758;2023-07-20T05:12:56;15.00;99.90
43858;DHT22;29507;51.284;5.758;2023-07-20T05:15:21;15.10;99.90
43858;DHT22;29507;51.284;5.758;2023-07-20T05:17:47;15.30;99.90
43858;DHT22;29507;51.284;5.758;2023-07-20T05:20:14;15.50;99.90
43858;DHT22;29507;51.284;5.758;2023-07-20T05:22:40;15.70;99.90
43858;DHT22;29507;51.284;5.758;2023-07-20T05:25:07;16.00;99.90
43858;DHT22;29507;51.284;5.758;2023-07-20T05:27:34;16.30;99.90
43858;DHT22;29507;51.284;5.758;2023-07-20T05:30:00;16.30;99.90
43858;DHT22;29507;51.284;5.758;2023-07-20T05:32:26;16.30;99.90
43858;DHT22;29507;51.284;5.758;2023-07-20T05:34:52;16.40;99.90
43858;DHT22;29507;51.284;5.758;2023-07-20T05:37:19;16.50;99.90
43858;DHT22;29507;51.284;5.758;2023-07-20T05:39:45;16.60;99.90
43858;DHT22;29507;51.284;5.758;2023-07-20T05:42:11;16.50;99.90
43858;DHT22;29507;51.284;5.758;2023-07-20T05:44:36;16.50;99.90
43858;DHT22;29507;51.284;5.758;2023-07-20T05:47:02;16.50;99.90
43858;DHT22;29507;51.284;5.758;2023-07-20T05:49:28;16.60;99.90
43858;DHT22;29507;51.284;5.758;2023-07-20T05:51:55;16.70;99.90
43858;DHT22;29507;51.284;5.758;2023-07-20T05:54:21;17.00;99.90
43858;DHT22;29507;51.284;5.758;2023-07-20T05:56:47;17.20;99.90
43858;DHT22;29507;51.284;5.758;2023-07-20T05:59:13;17.10;99.90
43858;DHT22;29507;51.284;5.758;2023-07-20T06:01:38;16.90;99.90
43858;DHT22;29507;51.284;5.758;2023-07-20T06:04:04;16.70;99.90
43858;DHT22;29507;51.284;5.758;2023-07-20T06:06:30;16.50;99.90
43858;DHT22;29507;51.284;5.758;2023-07-20T06:08:55;16.40;99.90
43858;DHT22;29507;51.284;5.758;2023-07-20T06:11:21;16.60;99.90
43858;DHT22;29507;51.284;5.758;2023-07-20T06:13:46;17.60;99.90
43858;DHT22;29507;51.284;5.758;2023-07-20T06:16:12;18.10;99.90
43858;DHT22;29507;51.284;5.758;2023-07-20T06:18:38;18.80;99.90
43858;DHT22;29507;51.284;5.758;2023-07-20T06:21:04;19.20;99.90
43858;DHT22;29507;51.284;5.758;2023-07-20T06:23:30;19.90;99.90
43858;DHT22;29507;51.284;5.758;2023-07-20T06:25:55;20.60;99.90
43858;DHT22;29507;51.284;5.758;2023-07-20T06:28:21;21.10;99.90
43858;DHT22;29507;51.284;5.758;2023-07-20T06:30:47;21.30;99.90
43858;DHT22;29507;51.284;5.758;2023-07-20T06:33:12;21.30;99.90
43858;DHT22;29507;51.284;5.758;2023-07-20T06:35:41;21.40;99.90
43858;DHT22;29507;51.284;5.758;2023-07-20T06:38:08;21.50;99.90
43858;DHT22;29507;51.284;5.758;2023-07-20T06:40:33;21.90;99.90
43858;DHT22;29507;51.284;5.758;2023-07-20T06:42:59;21.70;99.90
43858;DHT22;29507;51.284;5.758;2023-07-20T06:45:25;21.20;99.90
43858;DHT22;29507;51.284;5.758;2023-07-20T06:47:51;20.80;99.90
43858;DHT22;29507;51.284;5.758;2023-07-20T06:50:16;20.50;99.90
43858;DHT22;29507;51.284;5.758;2023-07-20T06:52:42;19.70;99.90
43858;DHT22;29507;51.284;5.758;2023-07-20T06:55:08;19.10;99.90
43858;DHT22;29507;51.284;5.758;2023-07-20T06:57:33;18.70;99.90
43858;DHT22;29507;51.284;5.758;2023-07-20T06:59:59;18.30;99.90
43858;DHT22;29507;51.284;5.758;2023-07-20T07:02:25;18.00;99.90
43858;DHT22;29507;51.284;5.758;2023-07-20T07:04:50;17.80;99.90
43858;DHT22;29507;51.284;5.758;2023-07-20T07:07:16;18.80;99.90
43858;DHT22;29507;51.284;5.758;2023-07-20T07:09:42;19.80;99.90
43858;DHT22;29507;51.284;5.758;2023-07-20T07:12:08;20.10;99.90
43858;DHT22;29507;51.284;5.758;2023-07-20T07:14:34;20.60;99.90
43858;DHT22;29507;51.284;5.758;2023-07-20T07:17:00;21.40;99.90
43858;DHT22;29507;51.284;5.758;2023-07-20T07:19:25;22.20;99.90
43858;DHT22;29507;51.284;5.758;2023-07-20T07:21:51;22.50;99.90
43858;DHT22;29507;51.284;5.758;2023-07-20T07:24:17;22.50;99.90
43858;DHT22;29507;51.284;5.758;2023-07-20T07:26:42;22.70;99.90
43858;DHT22;29507;51.284;5.758;2023-07-20T07:29:08;22.80;99.90
43858;DHT22;29507;51.284;5.758;2023-07-20T07:31:34;23.00;99.90
43858;DHT22;29507;51.284;5.758;2023-07-20T07:34:04;23.40;99.90
43858;DHT22;29507;51.284;5.758;2023-07-20T07:36:30;24.10;99.90
43858;DHT22;29507;51.284;5.758;2023-07-20T07:38:56;24.40;98.30
43858;DHT22;29507;51.284;5.758;2023-07-20T07:41:22;24.50;98.40
43858;DHT22;29507;51.284;5.758;2023-07-20T07:43:48;24.90;97.40
43858;DHT22;29507;51.284;5.758;2023-07-20T07:46:14;25.20;95.40
43858;DHT22;29507;51.284;5.758;2023-07-20T07:48:39;25.20;93.90
43858;DHT22;29507;51.284;5.758;2023-07-20T07:51:05;24.90;94.00
43858;DHT22;29507;51.284;5.758;2023-07-20T07:53:31;24.70;92.80
43858;DHT22;29507;51.284;5.758;2023-07-20T07:55:58;23.50;93.20
43858;DHT22;29507;51.284;5.758;2023-07-20T07:58:23;22.50;95.10
43858;DHT22;29507;51.284;5.758;2023-07-20T08:00:49;21.80;96.50
43858;DHT22;29507;51.284;5.758;2023-07-20T08:03:15;21.50;98.00
43858;DHT22;29507;51.284;5.758;2023-07-20T08:05:41;21.40;99.10
43858;DHT22;29507;51.284;5.758;2023-07-20T08:08:06;21.40;98.80
43858;DHT22;29507;51.284;5.758;2023-07-20T08:10:34;21.20;99.00
43858;DHT22;29507;51.284;5.758;2023-07-20T08:12:59;21.10;99.90
43858;DHT22;29507;51.284;5.758;2023-07-20T08:15:25;21.30;99.40
43858;DHT22;29507;51.284;5.758;2023-07-20T08:17:51;21.40;99.70
43858;DHT22;29507;51.284;5.758;2023-07-20T08:20:17;21.70;99.90
43858;DHT22;29507;51.284;5.758;2023-07-20T08:22:43;22.20;99.90
43858;DHT22;29507;51.284;5.758;2023-07-20T08:25:09;22.40;99.90
43858;DHT22;29507;51.284;5.758;2023-07-20T08:27:35;23.10;99.70
43858;DHT22;29507;51.284;5.758;2023-07-20T08:30:01;23.90;97.30
43858;DHT22;29507;51.284;5.758;2023-07-20T08:32:27;24.60;95.60
43858;DHT22;29507;51.284;5.758;2023-07-20T08:34:53;25.60;92.80
43858;DHT22;29507;51.284;5.758;2023-07-20T08:37:19;26.40;91.20
43858;DHT22;29507;51.284;5.758;2023-07-20T08:39:44;26.10;90.00
43858;DHT22;29507;51.284;5.758;2023-07-20T08:42:10;25.10;90.90
43858;DHT22;29507;51.284;5.758;2023-07-20T08:44:38;24.20;91.80
43858;DHT22;29507;51.284;5.758;2023-07-20T08:47:06;23.40;93.50
43858;DHT22;29507;51.284;5.758;2023-07-20T08:49:32;22.70;94.80
43858;DHT22;29507;51.284;5.758;2023-07-20T08:51:59;22.20;96.30
43858;DHT22;29507;51.284;5.758;2023-07-20T08:54:30;22.60;96.50
43858;DHT22;29507;51.284;5.758;2023-07-20T08:57:04;23.60;94.40
43858;DHT22;29507;51.284;5.758;2023-07-20T08:59:30;24.50;92.50
43858;DHT22;29507;51.284;5.758;2023-07-20T09:01:59;25.10;90.60
43858;DHT22;29507;51.284;5.758;2023-07-20T09:04:25;25.80;90.30
43858;DHT22;29507;51.284;5.758;2023-07-20T09:06:51;26.40;85.50
43858;DHT22;29507;51.284;5.758;2023-07-20T09:09:17;26.60;85.20
43858;DHT22;29507;51.284;5.758;2023-07-20T09:11:43;26.20;81.90
43858;DHT22;29507;51.284;5.758;2023-07-20T09:14:09;25.70;82.20
43858;DHT22;29507;51.284;5.758;2023-07-20T09:16:53;25.10;84.40
43858;DHT22;29507;51.284;5.758;2023-07-20T09:19:20;25.20;84.40
43858;DHT22;29507;51.284;5.758;2023-07-20T09:21:49;24.90;86.90
43858;DHT22;29507;51.284;5.758;2023-07-20T09:24:17;24.70;87.80
43858;DHT22;29507;51.284;5.758;2023-07-20T09:26:44;24.00;88.90
43858;DHT22;29507;51.284;5.758;2023-07-20T09:29:11;23.20;90.30
43858;DHT22;29507;51.284;5.758;2023-07-20T09:31:37;23.40;91.00
43858;DHT22;29507;51.284;5.758;2023-07-20T09:34:04;23.80;90.50
43858;DHT22;29507;51.284;5.758;2023-07-20T09:36:38;24.10;89.40
43858;DHT22;29507;51.284;5.758;2023-07-20T09:39:04;24.20;88.60
43858;DHT22;29507;51.284;5.758;2023-07-20T09:41:41;24.80;88.20
43858;DHT22;29507;51.284;5.758;2023-07-20T09:44:10;25.60;83.30
43858;DHT22;29507;51.284;5.758;2023-07-20T09:46:49;25.60;83.80
43858;DHT22;29507;51.284;5.758;2023-07-20T09:49:17;25.80;84.90
43858;DHT22;29507;51.284;5.758;2023-07-20T09:51:42;26.20;81.80
43858;DHT22;29507;51.284;5.758;2023-07-20T09:54:10;26.10;80.30
43858;DHT22;29507;51.284;5.758;2023-07-20T09:56:38;25.20;81.60
43858;DHT22;29507;51.284;5.758;2023-07-20T09:59:05;24.30;83.00
43858;DHT22;29507;51.284;5.758;2023-07-20T10:01:32;23.80;83.80
43858;DHT22;29507;51.284;5.758;2023-07-20T10:03:59;24.30;85.20
43858;DHT22;29507;51.284;5.758;2023-07-20T10:06:29;25.10;82.00
43858;DHT22;29507;51.284;5.758;2023-07-20T10:09:01;25.20;80.40
43858;DHT22;29507;51.284;5.758;2023-07-20T10:11:31;25.30;81.80
43858;DHT22;29507;51.284;5.758;2023-07-20T10:13:59;26.40;80.40
43858;DHT22;29507;51.284;5.758;2023-07-20T10:16:30;26.40;77.50
43858;DHT22;29507;51.284;5.758;2023-07-20T10:19:07;26.10;77.30
43858;DHT22;29507;51.284;5.758;2023-07-20T10:21:40;26.30;76.50
43858;DHT22;29507;51.284;5.758;2023-07-20T10:24:07;27.00;75.60
43858;DHT22;29507;51.284;5.758;2023-07-20T10:26:34;27.60;72.20
43858;DHT22;29507;51.284;5.758;2023-07-20T10:29:01;27.70;71.30
43858;DHT22;29507;51.284;5.758;2023-07-20T10:31:28;28.00;68.60
43858;DHT22;29507;51.284;5.758;2023-07-20T10:33:56;27.90;68.10
43858;DHT22;29507;51.284;5.758;2023-07-20T10:36:26;28.40;67.50
43858;DHT22;29507;51.284;5.758;2023-07-20T10:38:58;28.70;68.70
43858;DHT22;29507;51.284;5.758;2023-07-20T10:41:34;28.20;67.90
43858;DHT22;29507;51.284;5.758;2023-07-20T10:44:09;28.20;68.60
43858;DHT22;29507;51.284;5.758;2023-07-20T10:49:08;28.40;68.60
43858;DHT22;29507;51.284;5.758;2023-07-20T10:51:43;28.70;67.30
43858;DHT22;29507;51.284;5.758;2023-07-20T10:57:21;28.10;67.40
43858;DHT22;29507;51.284;5.758;2023-07-20T10:59:47;28.80;65.00
43858;DHT22;29507;51.284;5.758;2023-07-20T11:02:12;28.30;65.30
43858;DHT22;29507;51.284;5.758;2023-07-20T11:04:42;28.50;64.70
43858;DHT22;29507;51.284;5.758;2023-07-20T11:07:09;27.80;64.80
43858;DHT22;29507;51.284;5.758;2023-07-20T11:09:38;27.90;65.90
43858;DHT22;29507;51.284;5.758;2023-07-20T11:14:54;28.90;63.70
43858;DHT22;29507;51.284;5.758;2023-07-20T11:17:20;29.20;62.60
43858;DHT22;29507;51.284;5.758;2023-07-20T11:19:55;29.70;61.80
43858;DHT22;29507;51.284;5.758;2023-07-20T11:22:21;29.40;63.10
43858;DHT22;29507;51.284;5.758;2023-07-20T11:24:47;29.50;62.70
43858;DHT22;29507;51.284;5.758;2023-07-20T11:27:15;29.10;62.60
43858;DHT22;29507;51.284;5.758;2023-07-20T11:29:41;28.60;63.00
43858;DHT22;29507;51.284;5.758;2023-07-20T11:32:07;28.20;64.00
43858;DHT22;29507;51.284;5.758;2023-07-20T11:34:34;28.30;64.20
43858;DHT22;29507;51.284;5.758;2023-07-20T11:37:00;28.40;62.40
43858;DHT22;29507;51.284;5.758;2023-07-20T11:39:26;28.30;62.30
43858;DHT22;29507;51.284;5.758;2023-07-20T11:41:55;27.40;62.70
43858;DHT22;29507;51.284;5.758;2023-07-20T11:44:26;26.40;63.80
43858;DHT22;29507;51.284;5.758;2023-07-20T11:47:07;26.10;65.60
43858;DHT22;29507;51.284;5.758;2023-07-20T11:52:07;27.10;64.40
43858;DHT22;29507;51.284;5.758;2023-07-20T11:54:34;26.60;63.70
43858;DHT22;29507;51.284;5.758;2023-07-20T11:57:01;26.00;64.70
43858;DHT22;29507;51.284;5.758;2023-07-20T11:59:27;26.50;64.90
43858;DHT22;29507;51.284;5.758;2023-07-20T12:01:53;26.40;63.80
43858;DHT22;29507;51.284;5.758;2023-07-20T12:04:18;26.00;63.80
43858;DHT22;29507;51.284;5.758;2023-07-20T12:06:45;26.10;64.30
43858;DHT22;29507;51.284;5.758;2023-07-20T12:09:16;26.10;64.30
43858;DHT22;29507;51.284;5.758;2023-07-20T12:11:43;26.30;64.50
43858;DHT22;29507;51.284;5.758;2023-07-20T12:14:10;27.10;62.60
43858;DHT22;29507;51.284;5.758;2023-07-20T12:16:37;26.80;62.40
43858;DHT22;29507;51.284;5.758;2023-07-20T12:19:10;26.60;63.70
43858;DHT22;29507;51.284;5.758;2023-07-20T12:21:38;26.80;64.40
43858;DHT22;29507;51.284;5.758;2023-07-20T12:24:05;27.40;65.40
43858;DHT22;29507;51.284;5.758;2023-07-20T12:26:32;27.50;63.10
43858;DHT22;29507;51.284;5.758;2023-07-20T12:28:59;27.90;62.30
43858;DHT22;29507;51.284;5.758;2023-07-20T12:31:26;28.50;62.80
43858;DHT22;29507;51.284;5.758;2023-07-20T12:33:52;28.20;60.60
43858;DHT22;29507;51.284;5.758;2023-07-20T12:36:19;27.40;61.60
43858;DHT22;29507;51.284;5.758;2023-07-20T12:38:45;26.60;62.60
43858;DHT22;29507;51.284;5.758;2023-07-20T12:41:11;26.30;64.90
43858;DHT22;29507;51.284;5.758;2023-07-20T12:43:41;26.00;64.40
43858;DHT22;29507;51.284;5.758;2023-07-20T12:46:07;26.00;65.70
43858;DHT22;29507;51.284;5.758;2023-07-20T12:48:36;26.10;65.90
43858;DHT22;29507;51.284;5.758;2023-07-20T12:51:06;27.00;65.60
43858;DHT22;29507;51.284;5.758;2023-07-20T12:53:33;27.60;64.20
43858;DHT22;29507;51.284;5.758;2023-07-20T12:55:59;28.10;62.60
43858;DHT22;29507;51.284;5.758;2023-07-20T12:58:25;27.70;63.30
43858;DHT22;29507;51.284;5.758;2023-07-20T13:00:50;27.00;63.90
43858;DHT22;29507;51.284;5.758;2023-07-20T13:03:16;26.10;65.00
43858;DHT22;29507;51.284;5.758;2023-07-20T13:05:44;25.70;65.30
43858;DHT22;29507;51.284;5.758;2023-07-20T13:08:10;25.60;66.50
43858;DHT22;29507;51.284;5.758;2023-07-20T13:10:36;25.40;67.90
43858;DHT22;29507;51.284;5.758;2023-07-20T13:13:01;25.40;67.20
43858;DHT22;29507;51.284;5.758;2023-07-20T13:15:32;25.40;68.40
43858;DHT22;29507;51.284;5.758;2023-07-20T13:17:58;25.30;68.70
43858;DHT22;29507;51.284;5.758;2023-07-20T13:20:24;25.10;69.60
43858;DHT22;29507;51.284;5.758;2023-07-20T13:22:50;25.00;69.50
43858;DHT22;29507;51.284;5.758;2023-07-20T13:25:16;24.70;70.80
43858;DHT22;29507;51.284;5.758;2023-07-20T13:27:42;24.60;71.20
43858;DHT22;29507;51.284;5.758;2023-07-20T13:30:07;24.50;71.30
43858;DHT22;29507;51.284;5.758;2023-07-20T13:32:35;24.30;72.10
43858;DHT22;29507;51.284;5.758;2023-07-20T13:35:01;24.10;72.10
43858;DHT22;29507;51.284;5.758;2023-07-20T13:37:27;24.10;72.30
43858;DHT22;29507;51.284;5.758;2023-07-20T13:39:53;24.10;71.60
43858;DHT22;29507;51.284;5.758;2023-07-20T13:42:19;24.10;71.70
43858;DHT22;29507;51.284;5.758;2023-07-20T13:44:47;24.20;71.00
43858;DHT22;29507;51.284;5.758;2023-07-20T13:47:13;24.20;71.10
43858;DHT22;29507;51.284;5.758;2023-07-20T13:49:39;24.10;72.10
43858;DHT22;29507;51.284;5.758;2023-07-20T13:52:05;24.30;72.80
43858;DHT22;29507;51.284;5.758;2023-07-20T13:54:31;24.40;71.90
43858;DHT22;29507;51.284;5.758;2023-07-20T13:56:56;24.70;69.90
43858;DHT22;29507;51.284;5.758;2023-07-20T13:59:23;25.10;70.60
43858;DHT22;29507;51.284;5.758;2023-07-20T14:01:48;26.40;69.50
43858;DHT22;29507;51.284;5.758;2023-07-20T14:04:14;27.50;66.10
43858;DHT22;29507;51.284;5.758;2023-07-20T14:06:40;28.00;66.20
43858;DHT22;29507;51.284;5.758;2023-07-20T14:09:06;28.30;63.40
43858;DHT22;29507;51.284;5.758;2023-07-20T14:11:31;29.00;63.70
43858;DHT22;29507;51.284;5.758;2023-07-20T14:13:57;29.10;63.60
43858;DHT22;29507;51.284;5.758;2023-07-20T14:16:24;29.60;62.40
43858;DHT22;29507;51.284;5.758;2023-07-20T14:18:50;29.70;61.70
43858;DHT22;29507;51.284;5.758;2023-07-20T14:21:17;29.50;60.50
43858;DHT22;29507;51.284;5.758;2023-07-20T14:23:45;29.40;61.00
43858;DHT22;29507;51.284;5.758;2023-07-20T14:26:11;28.50;61.70
43858;DHT22;29507;51.284;5.758;2023-07-20T14:28:37;27.50;63.00
43858;DHT22;29507;51.284;5.758;2023-07-20T14:31:03;26.70;64.30
43858;DHT22;29507;51.284;5.758;2023-07-20T14:33:29;26.10;64.50
43858;DHT22;29507;51.284;5.758;2023-07-20T14:35:54;26.70;65.80
43858;DHT22;29507;51.284;5.758;2023-07-20T14:38:20;27.90;64.50
43858;DHT22;29507;51.284;5.758;2023-07-20T14:40:46;27.80;62.10
43858;DHT22;29507;51.284;5.758;2023-07-20T14:43:12;27.70;62.40
43858;DHT22;29507;51.284;5.758;2023-07-20T14:45:42;27.30;63.50
43858;DHT22;29507;51.284;5.758;2023-07-20T14:48:08;26.90;64.60
43858;DHT22;29507;51.284;5.758;2023-07-20T14:50:37;26.70;65.30
43858;DHT22;29507;51.284;5.758;2023-07-20T14:53:15;26.50;65.50
43858;DHT22;29507;51.284;5.758;2023-07-20T14:55:43;26.10;65.80
43858;DHT22;29507;51.284;5.758;2023-07-20T14:58:13;25.60;66.70
43858;DHT22;29507;51.284;5.758;2023-07-20T15:00:42;25.20;67.30
43858;DHT22;29507;51.284;5.758;2023-07-20T15:03:08;25.00;67.50
43858;DHT22;29507;51.284;5.758;2023-07-20T15:05:36;24.80;68.30
43858;DHT22;29507;51.284;5.758;2023-07-20T15:08:03;24.60;69.50
43858;DHT22;29507;51.284;5.758;2023-07-20T15:10:34;24.50;70.30
43858;DHT22;29507;51.284;5.758;2023-07-20T15:13:03;24.40;70.30
43858;DHT22;29507;51.284;5.758;2023-07-20T15:15:32;24.10;70.20
43858;DHT22;29507;51.284;5.758;2023-07-20T15:17:58;23.90;71.10
43858;DHT22;29507;51.284;5.758;2023-07-20T15:20:23;23.80;71.30
43858;DHT22;29507;51.284;5.758;2023-07-20T15:22:49;23.70;71.20
43858;DHT22;29507;51.284;5.758;2023-07-20T15:25:15;23.70;71.00
43858;DHT22;29507;51.284;5.758;2023-07-20T15:27:40;23.60;71.20
43858;DHT22;29507;51.284;5.758;2023-07-20T15:30:09;23.50;71.80
43858;DHT22;29507;51.284;5.758;2023-07-20T15:32:35;23.50;73.30
43858;DHT22;29507;51.284;5.758;2023-07-20T15:35:01;23.50;73.30
43858;DHT22;29507;51.284;5.758;2023-07-20T15:37:29;23.60;72.80
43858;DHT22;29507;51.284;5.758;2023-07-20T15:39:55;23.80;73.10
43858;DHT22;29507;51.284;5.758;2023-07-20T15:42:20;23.70;73.20
43858;DHT22;29507;51.284;5.758;2023-07-20T15:44:47;23.70;73.50
43858;DHT22;29507;51.284;5.758;2023-07-20T15:47:13;23.70;73.20
43858;DHT22;29507;51.284;5.758;2023-07-20T15:49:39;23.70;73.20